createdAt,value
2023-01-03T00:02:53.650Z,5.92
2023-01-03T00:06:01.035Z,5.95
2023-01-03T00:09:06.603Z,5.69
2023-01-03T00:12:31.275Z,5.62
2023-01-03T00:15:30.869Z,5.57
2023-01-03T00:18:23.362Z,5.54
2023-01-03T00:21:29.132Z,5.69
2023-01-03T00:24:35.117Z,5.56
2023-01-03T00:27:40.612Z,5.72
2023-01-03T00:30:46.119Z,5.62
2023-01-03T00:33:53.614Z,5.54
2023-01-03T00:36:59.730Z,5.69
2023-01-03T00:40:05.964Z,5.49
2023-01-03T00:43:30.316Z,5.57
2023-01-03T00:46:37.086Z,5.77
2023-01-03T00:49:42.252Z,5.60
2023-01-03T00:52:48.815Z,5.75
2023-01-03T00:55:55.246Z,5.57
2023-01-03T00:59:00.950Z,5.62
2023-01-03T01:02:11.729Z,5.58
2023-01-03T01:05:18.054Z,5.57
2023-01-03T01:08:25.090Z,5.68
2023-01-03T01:11:31.587Z,5.59
2023-01-03T01:14:39.763Z,5.71
2023-01-03T01:17:45.567Z,5.65
2023-01-03T01:20:53.489Z,5.99
2023-01-03T01:23:58.691Z,6.26
2023-01-03T01:27:05.671Z,6.35
2023-01-03T01:30:04.146Z,6.18
2023-01-03T01:33:10.312Z,6.16
2023-01-03T01:36:24.932Z,6.14
2023-01-03T01:39:34.477Z,6.14
2023-01-03T01:42:57.215Z,6.24
2023-01-03T01:46:03.368Z,6.23
2023-01-03T01:49:18.249Z,6.37
2023-01-03T01:52:24.504Z,6.48
2023-01-03T01:55:36.791Z,6.56
2023-01-03T01:58:47.320Z,6.66
2023-01-03T02:01:53.332Z,6.73
2023-01-03T02:04:58.430Z,6.66
2023-01-03T02:08:05.944Z,6.67
2023-01-03T02:11:33.333Z,6.62
2023-01-03T02:14:51.972Z,6.60
2023-01-03T02:18:08.950Z,6.70
2023-01-03T02:21:31.010Z,6.72
2023-01-03T02:25:18.798Z,6.53
2023-01-03T02:28:44.153Z,6.43
2023-01-03T02:32:13.615Z,6.18
2023-01-03T02:35:35.548Z,6.22
2023-01-03T02:39:01.835Z,6.21
2023-01-03T02:42:38.327Z,6.36
2023-01-03T02:45:56.025Z,6.37
2023-01-03T02:49:24.026Z,6.17
2023-01-03T02:52:39.442Z,6.18
2023-01-03T02:55:46.466Z,6.38
2023-01-03T02:58:52.664Z,6.55
2023-01-03T03:01:58.536Z,6.70
2023-01-03T03:05:07.201Z,6.65
2023-01-03T03:08:13.112Z,6.81
2023-01-03T03:11:36.547Z,6.72
2023-01-03T03:14:57.775Z,6.58
2023-01-03T03:18:06.201Z,6.45
2023-01-03T03:21:29.116Z,6.41
2023-01-03T03:24:58.776Z,6.35
2023-01-03T03:28:24.074Z,6.40
2023-01-03T03:31:48.177Z,6.34
2023-01-03T03:34:54.890Z,6.16
2023-01-03T03:38:02.338Z,6.35
2023-01-03T03:41:52.075Z,6.45
2023-01-03T03:45:08.150Z,6.22
2023-01-03T03:48:24.576Z,6.18
2023-01-03T03:51:30.015Z,6.13
2023-01-03T03:54:35.761Z,6.19
2023-01-03T03:57:57.420Z,6.15
2023-01-03T04:01:03.611Z,6.05
2023-01-03T04:04:10.244Z,6.04
2023-01-03T04:07:15.774Z,5.88
2023-01-03T04:10:24.646Z,5.78
2023-01-03T04:13:30.821Z,5.74
2023-01-03T04:16:35.969Z,6.13
2023-01-03T04:19:40.925Z,5.97
2023-01-03T04:22:46.875Z,6.06
2023-01-03T04:25:52.900Z,6.00
2023-01-03T04:28:58.955Z,6.04
2023-01-03T04:32:04.974Z,6.43
2023-01-03T04:35:11.151Z,5.99
2023-01-03T04:38:17.734Z,5.94
2023-01-03T04:41:24.056Z,5.86
2023-01-03T04:44:30.361Z,6.05
2023-01-03T04:47:35.856Z,6.01
2023-01-03T04:50:41.639Z,6.09
2023-01-03T04:53:46.909Z,6.23
2023-01-03T04:56:53.342Z,6.23
2023-01-03T05:00:00.580Z,6.13
2023-01-03T05:03:07.294Z,6.10
2023-01-03T05:06:17.104Z,6.14
2023-01-03T05:09:23.005Z,6.21
2023-01-03T05:12:28.322Z,6.18
2023-01-03T05:15:33.318Z,6.24
2023-01-03T05:18:39.186Z,6.22
2023-01-03T05:22:03.138Z,6.24
2023-01-03T05:25:26.752Z,6.13
2023-01-03T05:28:36.423Z,6.10
2023-01-03T05:31:41.586Z,6.05
2023-01-03T05:34:47.630Z,6.10
2023-01-03T05:37:53.810Z,5.79
2023-01-03T05:41:00.963Z,5.70
2023-01-03T05:44:05.680Z,5.66
2023-01-03T05:47:12.211Z,5.79
2023-01-03T05:50:17.521Z,5.97
2023-01-03T05:53:25.209Z,6.09
2023-01-03T05:56:30.895Z,6.12
2023-01-03T05:59:36.641Z,6.10
2023-01-03T06:02:42.967Z,6.25
2023-01-03T06:05:50.325Z,6.22
2023-01-03T06:08:55.454Z,6.24
2023-01-03T06:12:02.571Z,6.17
2023-01-03T06:15:08.608Z,6.29
2023-01-03T06:18:14.982Z,6.35
2023-01-03T06:21:20.151Z,6.39
2023-01-03T06:24:26.019Z,6.42
2023-01-03T06:27:31.955Z,6.44
2023-01-03T06:30:38.282Z,6.34
2023-01-03T06:33:45.133Z,6.26
2023-01-03T06:36:50.483Z,6.21
2023-01-03T06:39:56.719Z,6.20
2023-01-03T06:42:56.537Z,6.16
2023-01-03T06:46:06.728Z,6.35
2023-01-03T06:49:30.470Z,6.39
2023-01-03T06:52:53.305Z,6.31
2023-01-03T06:55:59.614Z,6.40
2023-01-03T06:59:04.575Z,6.37
2023-01-03T07:02:11.100Z,6.49
2023-01-03T07:05:17.195Z,6.66
2023-01-03T07:08:22.947Z,6.76
2023-01-03T07:11:29.977Z,6.55
2023-01-03T07:14:35.939Z,6.53
2023-01-03T07:17:41.029Z,6.70
2023-01-03T07:20:46.077Z,6.93
2023-01-03T07:23:51.936Z,7.08
2023-01-03T07:27:17.140Z,6.96
2023-01-03T07:30:23.417Z,6.92
2023-01-03T07:33:29.023Z,6.90
2023-01-03T07:36:35.393Z,7.02
2023-01-03T07:39:40.285Z,7.04
2023-01-03T07:43:04.993Z,7.11
2023-01-03T07:46:09.698Z,7.19
2023-01-03T07:49:15.122Z,7.10
2023-01-03T07:52:20.995Z,7.11
2023-01-03T07:55:27.008Z,7.21
2023-01-03T07:58:33.096Z,7.47
2023-01-03T08:01:39.692Z,7.43
2023-01-03T08:04:38.908Z,7.33
2023-01-03T08:07:44.749Z,7.63
2023-01-03T08:11:08.250Z,7.62
2023-01-03T08:14:14.304Z,7.65
2023-01-03T08:17:20.197Z,7.63
2023-01-03T08:20:26.110Z,7.73
2023-01-03T08:23:32.275Z,7.91
2023-01-03T08:26:39.426Z,8.02
2023-01-03T08:29:45.289Z,8.19
2023-01-03T08:32:51.736Z,8.15
2023-01-03T08:36:01.965Z,7.99
2023-01-03T08:39:11.549Z,8.11
2023-01-03T08:42:19.189Z,8.03
2023-01-03T08:45:26.906Z,8.27
2023-01-03T08:48:33.737Z,8.29
2023-01-03T08:51:38.489Z,8.19
2023-01-03T08:54:46.245Z,8.17
2023-01-03T08:57:52.863Z,8.34
2023-01-03T09:04:24.096Z,8.49
2023-01-03T09:07:32.089Z,8.53
2023-01-03T09:10:42.199Z,8.63
2023-01-03T09:13:45.419Z,8.67
2023-01-03T09:16:50.564Z,8.74
2023-01-03T09:19:55.851Z,8.75
2023-01-03T09:23:01.477Z,8.90
2023-01-03T09:26:07.643Z,9.05
2023-01-03T09:29:12.780Z,9.12
2023-01-03T09:32:18.903Z,9.25
2023-01-03T09:35:24.610Z,9.41
2023-01-03T09:38:30.533Z,9.46
2023-01-03T09:41:42.231Z,9.48
2023-01-03T09:44:48.729Z,9.47
2023-01-03T09:47:54.268Z,9.51
2023-01-03T09:51:21.241Z,9.47
2023-01-03T09:54:27.736Z,9.91
2023-01-03T09:58:00.135Z,10.03
2023-01-03T10:01:23.113Z,10.04
2023-01-03T10:05:01.439Z,10.03
2023-01-03T10:08:34.483Z,10.11
2023-01-03T10:11:48.545Z,10.22
2023-01-03T10:15:19.042Z,10.22
2023-01-03T10:18:36.081Z,10.32
2023-01-03T10:22:27.241Z,10.35
2023-01-03T10:25:36.736Z,10.34
2023-01-03T10:28:47.514Z,10.44
2023-01-03T10:32:26.024Z,10.56
2023-01-03T10:35:45.626Z,10.57
2023-01-03T10:38:53.439Z,10.61
2023-01-03T10:42:01.072Z,10.71
2023-01-03T10:45:26.333Z,10.51
2023-01-03T10:48:36.244Z,10.51
2023-01-03T10:51:58.841Z,10.67
2023-01-03T10:55:10.487Z,10.86
2023-01-03T10:58:20.109Z,10.71
2023-01-03T11:01:35.686Z,10.74
2023-01-03T11:04:43.086Z,10.61
2023-01-03T11:07:48.946Z,10.70
2023-01-03T11:11:13.483Z,10.77
2023-01-03T11:14:37.114Z,10.82
2023-01-03T11:17:43.190Z,10.86
2023-01-03T11:21:30.061Z,10.89
2023-01-03T11:24:43.366Z,10.96
2023-01-03T11:28:24.429Z,10.97
2023-01-03T11:31:55.288Z,11.09
2023-01-03T11:35:56.821Z,11.11
2023-01-03T11:39:24.686Z,11.18
2023-01-03T11:42:54.383Z,11.19
2023-01-03T11:46:07.871Z,11.19
2023-01-03T11:49:44.042Z,11.21
2023-01-03T11:53:06.741Z,11.31
2023-01-03T11:56:32.989Z,11.39
2023-01-03T12:00:05.918Z,11.41
2023-01-03T12:03:31.614Z,11.43
2023-01-03T12:07:37.020Z,11.37
2023-01-03T12:10:22.580Z,11.35
2023-01-03T12:13:38.077Z,11.17
2023-01-03T12:17:01.300Z,11.07
2023-01-03T12:20:18.247Z,11.00
2023-01-03T12:23:48.900Z,11.00
2023-01-03T12:26:57.319Z,11.06
2023-01-03T12:30:29.511Z,11.32
2023-01-03T12:34:04.262Z,11.35
2023-01-03T12:37:34.192Z,11.16
2023-01-03T12:41:07.959Z,11.16
2023-01-03T12:44:27.075Z,11.12
2023-01-03T12:47:55.462Z,11.03
2023-01-03T12:51:06.887Z,10.89
2023-01-03T12:54:43.272Z,10.79
2023-01-03T12:58:08.504Z,10.72
2023-01-03T13:01:22.615Z,10.61
2023-01-03T13:04:34.278Z,10.41
2023-01-03T13:07:44.169Z,10.35
2023-01-03T13:10:52.439Z,10.33
2023-01-03T13:14:19.812Z,10.08
2023-01-03T13:17:32.666Z,10.13
2023-01-03T13:20:50.257Z,10.12
2023-01-03T13:24:14.468Z,10.36
2023-01-03T13:27:37.707Z,10.17
2023-01-03T13:30:45.402Z,10.09
2023-01-03T13:34:00.153Z,9.91
2023-01-03T13:37:24.976Z,9.91
2023-01-03T13:41:16.586Z,9.73
2023-01-03T13:43:52.227Z,9.71
2023-01-03T13:46:58.933Z,9.66
2023-01-03T13:50:04.956Z,9.53
2023-01-03T13:53:25.428Z,9.32
2023-01-03T13:56:31.176Z,9.19
2023-01-03T13:59:50.947Z,9.17
2023-01-03T14:03:16.984Z,9.16
2023-01-03T14:06:56.372Z,9.16
2023-01-03T14:10:15.106Z,9.02
2023-01-03T14:13:29.772Z,8.85
2023-01-03T14:16:43.228Z,9.04
2023-01-03T14:19:54.258Z,8.95
2023-01-03T14:23:11.625Z,8.87
2023-01-03T14:26:08.593Z,8.78
2023-01-03T14:29:19.322Z,8.52
2023-01-03T14:32:44.522Z,8.62
2023-01-03T14:35:55.891Z,8.65
2023-01-03T14:39:06.661Z,8.59
2023-01-03T14:42:10.355Z,8.55
2023-01-03T14:45:18.348Z,8.67
2023-01-03T14:48:28.259Z,8.46
2023-01-03T14:51:34.808Z,8.42
2023-01-03T14:54:40.962Z,8.49
2023-01-03T14:57:51.881Z,8.41
2023-01-03T15:00:59.657Z,8.28
2023-01-03T15:04:05.047Z,8.27
2023-01-03T15:07:16.836Z,8.28
2023-01-03T15:10:28.466Z,8.27
2023-01-03T15:13:47.013Z,8.23
2023-01-03T15:16:55.617Z,8.26
2023-01-03T15:20:09.300Z,8.23
2023-01-03T15:23:15.241Z,8.15
2023-01-03T15:26:22.110Z,8.22
2023-01-03T15:29:36.895Z,8.26
2023-01-03T15:32:42.166Z,8.30
2023-01-03T15:35:53.690Z,8.33
2023-01-03T15:39:00.348Z,8.39
2023-01-03T15:42:50.209Z,8.42
2023-01-03T15:45:40.869Z,8.46
2023-01-03T15:48:48.156Z,8.40
2023-01-03T15:51:54.727Z,8.57
2023-01-03T15:55:00.550Z,8.55
2023-01-03T15:58:06.085Z,8.44
2023-01-03T16:01:11.902Z,8.39
2023-01-03T16:04:19.327Z,8.33
2023-01-03T16:07:25.836Z,8.24
2023-01-03T16:10:31.724Z,8.26
2023-01-03T16:13:38.844Z,8.16
2023-01-03T16:16:48.056Z,8.21
2023-01-03T16:19:53.617Z,8.25
2023-01-03T16:23:03.351Z,8.23
2023-01-03T16:26:09.778Z,8.25
2023-01-03T16:29:15.603Z,8.17
2023-01-03T16:32:21.361Z,8.27
2023-01-03T16:35:34.017Z,8.34
2023-01-03T16:38:39.815Z,8.38
2023-01-03T16:41:45.468Z,8.47
2023-01-03T16:44:52.263Z,8.52
2023-01-03T16:47:57.595Z,8.53
2023-01-03T16:51:04.846Z,8.56
2023-01-03T16:54:12.019Z,8.54
2023-01-03T16:57:17.447Z,8.56
2023-01-03T17:00:31.617Z,8.66
2023-01-03T17:03:41.754Z,8.61
2023-01-03T17:06:46.049Z,8.68
2023-01-03T17:09:51.443Z,8.73
2023-01-03T17:12:57.427Z,8.58
2023-01-03T17:16:03.965Z,8.60
2023-01-03T17:19:09.385Z,8.64
2023-01-03T17:22:16.813Z,8.71
2023-01-03T17:25:24.379Z,8.75
2023-01-03T17:28:29.939Z,8.75
2023-01-03T17:31:38.085Z,8.76
2023-01-03T17:34:45.410Z,8.83
2023-01-03T17:38:23.991Z,8.77
2023-01-03T17:41:04.273Z,8.81
2023-01-03T17:44:09.817Z,8.70
2023-01-03T17:47:54.324Z,8.76
2023-01-03T17:51:00.317Z,8.74
2023-01-03T17:54:05.709Z,8.72
2023-01-03T17:57:14.223Z,8.84
2023-01-03T18:00:34.405Z,8.86
2023-01-03T18:03:40.450Z,8.95
2023-01-03T18:06:47.773Z,8.67
2023-01-03T18:09:53.195Z,8.81
2023-01-03T18:12:58.258Z,8.78
2023-01-03T18:16:03.430Z,8.73
2023-01-03T18:19:08.253Z,8.70
2023-01-03T18:22:13.584Z,8.80
2023-01-03T18:25:23.187Z,8.80
2023-01-03T18:28:28.585Z,8.75
2023-01-03T18:31:34.759Z,8.83
2023-01-03T18:34:40.137Z,8.86
2023-01-03T18:37:48.889Z,8.94
2023-01-03T18:41:00.703Z,8.95
2023-01-03T18:44:03.376Z,9.08
2023-01-03T18:47:09.525Z,9.26
2023-01-03T18:50:15.771Z,9.23
2023-01-03T18:53:22.775Z,9.34
2023-01-03T18:56:41.885Z,9.32
2023-01-03T18:59:47.208Z,9.34
2023-01-03T19:02:53.845Z,9.38
2023-01-03T19:06:02.627Z,9.44
2023-01-03T19:09:08.876Z,9.35
2023-01-03T19:12:15.692Z,9.45
2023-01-03T19:15:41.523Z,9.45
2023-01-03T19:18:47.512Z,9.33
2023-01-03T19:21:55.823Z,9.24
2023-01-03T19:25:01.251Z,9.10
2023-01-03T19:28:06.800Z,9.18
2023-01-03T19:31:11.918Z,9.07
2023-01-03T19:34:18.590Z,9.04
2023-01-03T19:37:24.809Z,9.04
2023-01-03T19:40:30.900Z,8.96
2023-01-03T19:43:36.788Z,8.72
2023-01-03T19:46:42.555Z,8.66
2023-01-03T19:49:50.392Z,8.60
2023-01-03T19:52:56.961Z,8.44
2023-01-03T19:56:03.828Z,8.39
2023-01-03T19:59:09.924Z,8.28
2023-01-03T20:02:30.939Z,8.38
2023-01-03T20:05:37.844Z,8.39
2023-01-03T20:08:43.075Z,8.39
2023-01-03T20:11:49.082Z,8.26
2023-01-03T20:14:55.065Z,8.24
2023-01-03T20:18:00.804Z,8.23
2023-01-03T20:21:09.340Z,8.25
2023-01-03T20:24:16.419Z,8.38
2023-01-03T20:27:27.246Z,8.38
2023-01-03T20:30:33.908Z,8.22
2023-01-03T20:33:40.501Z,8.37
2023-01-03T20:36:58.518Z,8.11
2023-01-03T20:40:03.808Z,8.03
2023-01-03T20:43:10.822Z,7.88
2023-01-03T20:46:17.842Z,7.84
2023-01-03T20:49:33.986Z,8.13
2023-01-03T20:52:40.237Z,8.12
2023-01-03T20:55:45.344Z,8.19
2023-01-03T20:58:51.817Z,8.01
2023-01-03T21:01:59.605Z,8.12
2023-01-03T21:05:05.356Z,7.89
2023-01-03T21:08:28.732Z,7.93
2023-01-03T21:11:40.433Z,7.60
2023-01-03T21:14:46.314Z,7.74
2023-01-03T21:17:52.691Z,7.30
2023-01-03T21:20:59.217Z,7.12
2023-01-03T21:24:06.326Z,7.46
2023-01-03T21:27:11.919Z,7.50
2023-01-03T21:30:17.277Z,7.43
2023-01-03T21:33:28.704Z,7.32
2023-01-03T21:36:47.662Z,7.31
2023-01-03T21:39:53.175Z,7.18
2023-01-03T21:43:12.307Z,7.04
2023-01-03T21:46:21.331Z,7.41
2023-01-03T21:49:26.821Z,7.18
2023-01-03T21:52:35.280Z,7.55
2023-01-03T21:55:41.487Z,7.76
2023-01-03T21:58:47.155Z,9.64
2023-01-03T22:02:11.542Z,9.06
2023-01-03T22:05:18.116Z,8.64
2023-01-03T22:08:24.758Z,8.60
2023-01-03T22:11:31.771Z,8.55
2023-01-03T22:14:36.335Z,8.56
2023-01-03T22:17:42.749Z,8.56
2023-01-03T22:20:49.393Z,8.60
2023-01-03T22:23:54.766Z,8.83
2023-01-03T22:27:01.897Z,8.79
2023-01-03T22:30:08.442Z,8.85
2023-01-03T22:33:13.470Z,9.07
2023-01-03T22:36:19.828Z,9.09
2023-01-03T22:39:25.259Z,9.19
2023-01-03T22:42:31.934Z,9.14
2023-01-03T22:45:36.920Z,9.31
2023-01-03T22:48:43.215Z,8.85
2023-01-03T22:51:48.776Z,8.80
2023-01-03T22:54:54.613Z,8.86
2023-01-03T22:58:00.743Z,8.84
2023-01-03T23:01:07.159Z,8.46
2023-01-03T23:04:14.884Z,8.73
2023-01-03T23:07:21.345Z,8.96
2023-01-03T23:10:27.743Z,8.78
2023-01-03T23:13:32.886Z,8.84
2023-01-03T23:16:39.659Z,8.74
2023-01-03T23:19:45.821Z,8.78
2023-01-03T23:22:57.480Z,8.74
2023-01-03T23:25:59.053Z,8.89
2023-01-03T23:29:10.517Z,8.47
2023-01-03T23:32:16.648Z,8.56
2023-01-03T23:35:25.069Z,8.56
2023-01-03T23:38:30.835Z,8.48
2023-01-03T23:41:36.083Z,8.77
2023-01-03T23:44:41.879Z,8.56
2023-01-03T23:47:48.075Z,8.83
2023-01-03T23:50:54.447Z,8.88
2023-01-03T23:54:00.435Z,8.78
2023-01-03T23:57:06.791Z,8.76
